sensor_id;sensor_type;location;lat;lon;timestamp;P1;durP1;ratioP1;P2;durP2;ratioP2
30036;SDS011;36325;51.512;-0.382;2022-08-19T00:01:25;4.95;;;2.65;;
30036;SDS011;36325;51.512;-0.382;2022-08-19T00:03:56;3.45;;;2.67;;
30036;SDS011;36325;51.512;-0.382;2022-08-19T00:06:26;6.05;;;3.00;;
30036;SDS011;36325;51.512;-0.382;2022-08-19T00:08:54;5.88;;;2.50;;
30036;SDS011;36325;51.512;-0.382;2022-08-19T00:11:23;6.38;;;3.20;;
30036;SDS011;36325;51.512;-0.382;2022-08-19T00:13:52;4.55;;;2.50;;
30036;SDS011;36325;51.512;-0.382;2022-08-19T00:16:21;6.88;;;2.88;;
30036;SDS011;36325;51.512;-0.382;2022-08-19T00:18:50;6.85;;;2.70;;
30036;SDS011;36325;51.512;-0.382;2022-08-19T00:21:18;5.90;;;2.45;;
30036;SDS011;36325;51.512;-0.382;2022-08-19T00:23:45;4.95;;;2.50;;
30036;SDS011;36325;51.512;-0.382;2022-08-19T00:26:12;6.85;;;3.00;;
30036;SDS011;36325;51.512;-0.382;2022-08-19T00:28:40;7.00;;;2.53;;
30036;SDS011;36325;51.512;-0.382;2022-08-19T00:31:08;6.00;;;2.92;;
30036;SDS011;36325;51.512;-0.382;2022-08-19T00:33:36;5.35;;;2.40;;
30036;SDS011;36325;51.512;-0.382;2022-08-19T00:36:04;7.88;;;2.88;;
30036;SDS011;36325;51.512;-0.382;2022-08-19T00:38:33;6.55;;;2.50;;
30036;SDS011;36325;51.512;-0.382;2022-08-19T00:41:03;9.80;;;3.25;;
30036;SDS011;36325;51.512;-0.382;2022-08-19T00:43:31;7.47;;;4.25;;
30036;SDS011;36325;51.512;-0.382;2022-08-19T00:45:59;7.47;;;2.85;;
30036;SDS011;36325;51.512;-0.382;2022-08-19T00:48:27;8.85;;;3.55;;
30036;SDS011;36325;51.512;-0.382;2022-08-19T00:50:55;8.15;;;3.75;;
30036;SDS011;36325;51.512;-0.382;2022-08-19T00:53:24;6.22;;;3.05;;
30036;SDS011;36325;51.512;-0.382;2022-08-19T00:55:55;6.22;;;2.90;;
30036;SDS011;36325;51.512;-0.382;2022-08-19T00:58:26;5.95;;;3.58;;
30036;SDS011;36325;51.512;-0.382;2022-08-19T01:00:55;6.82;;;3.17;;
30036;SDS011;36325;51.512;-0.382;2022-08-19T01:03:22;10.45;;;3.83;;
30036;SDS011;36325;51.512;-0.382;2022-08-19T01:05:50;10.25;;;4.18;;
30036;SDS011;36325;51.512;-0.382;2022-08-19T01:08:20;11.55;;;3.80;;
30036;SDS011;36325;51.512;-0.382;2022-08-19T01:10:54;7.03;;;3.53;;
30036;SDS011;36325;51.512;-0.382;2022-08-19T01:13:24;7.10;;;3.97;;
30036;SDS011;36325;51.512;-0.382;2022-08-19T01:15:56;8.18;;;4.00;;
30036;SDS011;36325;51.512;-0.382;2022-08-19T01:18:30;13.82;;;4.07;;
30036;SDS011;36325;51.512;-0.382;2022-08-19T01:21:02;8.00;;;3.70;;
30036;SDS011;36325;51.512;-0.382;2022-08-19T01:23:35;5.70;;;4.00;;
30036;SDS011;36325;51.512;-0.382;2022-08-19T01:26:14;6.97;;;3.40;;
30036;SDS011;36325;51.512;-0.382;2022-08-19T01:28:44;7.20;;;3.40;;
30036;SDS011;36325;51.512;-0.382;2022-08-19T01:31:14;12.70;;;4.60;;
30036;SDS011;36325;51.512;-0.382;2022-08-19T01:33:52;14.20;;;3.85;;
30036;SDS011;36325;51.512;-0.382;2022-08-19T01:36:23;9.95;;;4.32;;
30036;SDS011;36325;51.512;-0.382;2022-08-19T01:38:53;8.25;;;3.67;;
30036;SDS011;36325;51.512;-0.382;2022-08-19T01:41:21;12.95;;;4.55;;
30036;SDS011;36325;51.512;-0.382;2022-08-19T01:43:50;5.32;;;3.67;;
30036;SDS011;36325;51.512;-0.382;2022-08-19T01:46:28;12.52;;;4.30;;
30036;SDS011;36325;51.512;-0.382;2022-08-19T01:48:56;9.68;;;3.80;;
30036;SDS011;36325;51.512;-0.382;2022-08-19T01:51:23;10.55;;;4.72;;
30036;SDS011;36325;51.512;-0.382;2022-08-19T01:53:51;10.38;;;4.57;;
30036;SDS011;36325;51.512;-0.382;2022-08-19T01:56:19;12.73;;;4.30;;
30036;SDS011;36325;51.512;-0.382;2022-08-19T01:58:49;12.80;;;5.15;;
30036;SDS011;36325;51.512;-0.382;2022-08-19T02:01:22;8.05;;;4.53;;
30036;SDS011;36325;51.512;-0.382;2022-08-19T02:03:49;12.15;;;4.35;;
30036;SDS011;36325;51.512;-0.382;2022-08-19T02:06:19;10.43;;;4.22;;
30036;SDS011;36325;51.512;-0.382;2022-08-19T02:08:47;13.10;;;5.38;;
30036;SDS011;36325;51.512;-0.382;2022-08-19T02:11:23;11.70;;;4.50;;
30036;SDS011;36325;51.512;-0.382;2022-08-19T02:13:53;13.85;;;4.93;;
30036;SDS011;36325;51.512;-0.382;2022-08-19T02:16:21;10.43;;;4.18;;
30036;SDS011;36325;51.512;-0.382;2022-08-19T02:18:50;10.27;;;4.70;;
30036;SDS011;36325;51.512;-0.382;2022-08-19T02:21:18;9.55;;;4.40;;
30036;SDS011;36325;51.512;-0.382;2022-08-19T02:23:47;12.50;;;4.53;;
30036;SDS011;36325;51.512;-0.382;2022-08-19T02:26:15;10.10;;;4.47;;
30036;SDS011;36325;51.512;-0.382;2022-08-19T02:28:43;16.85;;;4.65;;
30036;SDS011;36325;51.512;-0.382;2022-08-19T02:31:12;10.23;;;4.45;;
30036;SDS011;36325;51.512;-0.382;2022-08-19T02:33:44;11.13;;;3.88;;
30036;SDS011;36325;51.512;-0.382;2022-08-19T02:36:12;13.75;;;4.28;;
30036;SDS011;36325;51.512;-0.382;2022-08-19T02:38:41;8.90;;;4.25;;
30036;SDS011;36325;51.512;-0.382;2022-08-19T02:41:15;9.60;;;4.78;;
30036;SDS011;36325;51.512;-0.382;2022-08-19T02:43:44;14.18;;;5.05;;
30036;SDS011;36325;51.512;-0.382;2022-08-19T02:46:32;12.02;;;4.47;;
30036;SDS011;36325;51.512;-0.382;2022-08-19T02:49:02;12.98;;;3.95;;
30036;SDS011;36325;51.512;-0.382;2022-08-19T02:51:37;9.35;;;4.20;;
30036;SDS011;36325;51.512;-0.382;2022-08-19T02:54:07;12.75;;;4.05;;
30036;SDS011;36325;51.512;-0.382;2022-08-19T02:56:36;10.00;;;4.32;;
30036;SDS011;36325;51.512;-0.382;2022-08-19T02:59:04;9.43;;;4.15;;
30036;SDS011;36325;51.512;-0.382;2022-08-19T03:01:39;11.05;;;4.07;;
30036;SDS011;36325;51.512;-0.382;2022-08-19T03:04:08;9.77;;;3.55;;
30036;SDS011;36325;51.512;-0.382;2022-08-19T03:06:38;12.48;;;3.47;;
30036;SDS011;36325;51.512;-0.382;2022-08-19T03:09:07;10.30;;;3.58;;
30036;SDS011;36325;51.512;-0.382;2022-08-19T03:11:34;11.85;;;3.22;;
30036;SDS011;36325;51.512;-0.382;2022-08-19T03:14:02;8.98;;;3.47;;
30036;SDS011;36325;51.512;-0.382;2022-08-19T03:16:33;7.15;;;3.72;;
30036;SDS011;36325;51.512;-0.382;2022-08-19T03:19:02;11.83;;;4.10;;
30036;SDS011;36325;51.512;-0.382;2022-08-19T03:21:30;9.38;;;3.00;;
30036;SDS011;36325;51.512;-0.382;2022-08-19T03:24:00;9.20;;;3.08;;
30036;SDS011;36325;51.512;-0.382;2022-08-19T03:26:29;9.70;;;3.10;;
30036;SDS011;36325;51.512;-0.382;2022-08-19T03:28:57;7.32;;;2.72;;
30036;SDS011;36325;51.512;-0.382;2022-08-19T03:31:27;5.63;;;2.47;;
30036;SDS011;36325;51.512;-0.382;2022-08-19T03:34:07;5.97;;;2.88;;
30036;SDS011;36325;51.512;-0.382;2022-08-19T03:36:35;5.82;;;2.30;;
30036;SDS011;36325;51.512;-0.382;2022-08-19T03:39:03;6.10;;;2.50;;
30036;SDS011;36325;51.512;-0.382;2022-08-19T03:41:32;7.35;;;3.13;;
30036;SDS011;36325;51.512;-0.382;2022-08-19T03:44:10;3.50;;;2.03;;
30036;SDS011;36325;51.512;-0.382;2022-08-19T03:46:44;4.93;;;2.25;;
30036;SDS011;36325;51.512;-0.382;2022-08-19T03:49:19;3.95;;;2.22;;
30036;SDS011;36325;51.512;-0.382;2022-08-19T03:51:47;8.85;;;2.53;;
30036;SDS011;36325;51.512;-0.382;2022-08-19T03:54:16;3.10;;;1.85;;
30036;SDS011;36325;51.512;-0.382;2022-08-19T03:56:47;5.18;;;2.40;;
30036;SDS011;36325;51.512;-0.382;2022-08-19T03:59:19;11.20;;;2.85;;
30036;SDS011;36325;51.512;-0.382;2022-08-19T04:01:58;5.93;;;2.20;;
30036;SDS011;36325;51.512;-0.382;2022-08-19T04:04:28;6.30;;;2.90;;
30036;SDS011;36325;51.512;-0.382;2022-08-19T04:06:57;7.32;;;2.78;;
30036;SDS011;36325;51.512;-0.382;2022-08-19T04:09:25;6.88;;;2.88;;
30036;SDS011;36325;51.512;-0.382;2022-08-19T04:11:53;9.93;;;3.25;;
30036;SDS011;36325;51.512;-0.382;2022-08-19T04:14:22;4.68;;;2.90;;
30036;SDS011;36325;51.512;-0.382;2022-08-19T04:16:52;9.15;;;3.00;;
30036;SDS011;36325;51.512;-0.382;2022-08-19T04:19:19;7.55;;;3.22;;
30036;SDS011;36325;51.512;-0.382;2022-08-19T04:21:48;5.85;;;2.67;;
30036;SDS011;36325;51.512;-0.382;2022-08-19T04:24:17;3.88;;;2.08;;
30036;SDS011;36325;51.512;-0.382;2022-08-19T04:26:44;5.80;;;2.40;;
30036;SDS011;36325;51.512;-0.382;2022-08-19T04:29:17;6.15;;;2.92;;
30036;SDS011;36325;51.512;-0.382;2022-08-19T04:31:52;4.18;;;2.28;;
30036;SDS011;36325;51.512;-0.382;2022-08-19T04:34:20;4.75;;;2.10;;
30036;SDS011;36325;51.512;-0.382;2022-08-19T04:36:50;10.68;;;2.47;;
30036;SDS011;36325;51.512;-0.382;2022-08-19T04:39:20;5.22;;;2.20;;
30036;SDS011;36325;51.512;-0.382;2022-08-19T04:42:10;24.40;;;4.95;;
30036;SDS011;36325;51.512;-0.382;2022-08-19T04:44:57;12.05;;;2.25;;
30036;SDS011;36325;51.512;-0.382;2022-08-19T04:47:25;9.90;;;2.35;;
30036;SDS011;36325;51.512;-0.382;2022-08-19T04:50:13;8.73;;;2.38;;
30036;SDS011;36325;51.512;-0.382;2022-08-19T04:52:44;4.70;;;1.80;;
30036;SDS011;36325;51.512;-0.382;2022-08-19T04:55:12;6.80;;;1.70;;
30036;SDS011;36325;51.512;-0.382;2022-08-19T04:57:40;6.40;;;2.35;;
30036;SDS011;36325;51.512;-0.382;2022-08-19T05:00:08;6.13;;;2.35;;
30036;SDS011;36325;51.512;-0.382;2022-08-19T05:02:36;11.20;;;2.80;;
30036;SDS011;36325;51.512;-0.382;2022-08-19T05:05:04;6.78;;;2.75;;
30036;SDS011;36325;51.512;-0.382;2022-08-19T05:07:33;6.70;;;1.60;;
30036;SDS011;36325;51.512;-0.382;2022-08-19T05:10:00;11.70;;;1.30;;
30036;SDS011;36325;51.512;-0.382;2022-08-19T05:12:29;7.97;;;2.15;;
30036;SDS011;36325;51.512;-0.382;2022-08-19T05:14:57;3.92;;;1.80;;
30036;SDS011;36325;51.512;-0.382;2022-08-19T05:17:25;14.20;;;1.83;;
30036;SDS011;36325;51.512;-0.382;2022-08-19T05:19:57;9.02;;;1.08;;
30036;SDS011;36325;51.512;-0.382;2022-08-19T05:22:44;3.95;;;1.50;;
30036;SDS011;36325;51.512;-0.382;2022-08-19T05:25:15;2.55;;;1.42;;
30036;SDS011;36325;51.512;-0.382;2022-08-19T05:27:45;4.05;;;1.70;;
30036;SDS011;36325;51.512;-0.382;2022-08-19T05:30:13;4.00;;;1.13;;
30036;SDS011;36325;51.512;-0.382;2022-08-19T05:32:41;2.65;;;1.00;;
30036;SDS011;36325;51.512;-0.382;2022-08-19T05:35:12;5.22;;;1.08;;
30036;SDS011;36325;51.512;-0.382;2022-08-19T05:37:39;3.63;;;1.10;;
30036;SDS011;36325;51.512;-0.382;2022-08-19T05:40:07;2.50;;;1.70;;
30036;SDS011;36325;51.512;-0.382;2022-08-19T05:42:36;2.28;;;1.30;;
30036;SDS011;36325;51.512;-0.382;2022-08-19T05:45:04;1.05;;;0.80;;
30036;SDS011;36325;51.512;-0.382;2022-08-19T05:47:32;4.38;;;1.02;;
30036;SDS011;36325;51.512;-0.382;2022-08-19T05:50:00;1.40;;;0.80;;
30036;SDS011;36325;51.512;-0.382;2022-08-19T05:52:30;6.43;;;1.35;;
30036;SDS011;36325;51.512;-0.382;2022-08-19T05:54:58;0.93;;;0.60;;
30036;SDS011;36325;51.512;-0.382;2022-08-19T05:57:26;1.85;;;0.70;;
30036;SDS011;36325;51.512;-0.382;2022-08-19T05:59:55;0.60;;;0.45;;
30036;SDS011;36325;51.512;-0.382;2022-08-19T06:02:28;2.05;;;0.50;;
30036;SDS011;36325;51.512;-0.382;2022-08-19T06:04:57;1.70;;;0.47;;
30036;SDS011;36325;51.512;-0.382;2022-08-19T06:07:24;5.13;;;0.85;;
30036;SDS011;36325;51.512;-0.382;2022-08-19T06:09:52;2.63;;;0.80;;
30036;SDS011;36325;51.512;-0.382;2022-08-19T06:12:24;0.95;;;0.60;;
30036;SDS011;36325;51.512;-0.382;2022-08-19T06:14:55;4.68;;;0.70;;
30036;SDS011;36325;51.512;-0.382;2022-08-19T06:17:26;2.17;;;0.70;;
30036;SDS011;36325;51.512;-0.382;2022-08-19T06:19:54;1.92;;;0.60;;
30036;SDS011;36325;51.512;-0.382;2022-08-19T06:22:22;3.53;;;0.70;;
30036;SDS011;36325;51.512;-0.382;2022-08-19T06:24:49;4.68;;;0.90;;
30036;SDS011;36325;51.512;-0.382;2022-08-19T06:27:19;3.55;;;0.80;;
30036;SDS011;36325;51.512;-0.382;2022-08-19T06:29:47;4.10;;;0.70;;
30036;SDS011;36325;51.512;-0.382;2022-08-19T06:32:15;1.00;;;0.55;;
30036;SDS011;36325;51.512;-0.382;2022-08-19T06:34:43;3.55;;;0.80;;
30036;SDS011;36325;51.512;-0.382;2022-08-19T06:37:10;2.00;;;0.70;;
30036;SDS011;36325;51.512;-0.382;2022-08-19T06:39:38;2.20;;;0.63;;
30036;SDS011;36325;51.512;-0.382;2022-08-19T06:42:08;2.10;;;0.70;;
30036;SDS011;36325;51.512;-0.382;2022-08-19T06:44:39;7.00;;;1.02;;
30036;SDS011;36325;51.512;-0.382;2022-08-19T06:47:18;1.63;;;0.80;;
30036;SDS011;36325;51.512;-0.382;2022-08-19T06:49:49;3.65;;;0.80;;
30036;SDS011;36325;51.512;-0.382;2022-08-19T06:52:16;1.88;;;0.80;;
30036;SDS011;36325;51.512;-0.382;2022-08-19T06:54:43;10.38;;;1.45;;
30036;SDS011;36325;51.512;-0.382;2022-08-19T06:57:19;2.15;;;0.85;;
30036;SDS011;36325;51.512;-0.382;2022-08-19T06:59:46;2.33;;;0.73;;
30036;SDS011;36325;51.512;-0.382;2022-08-19T07:02:13;1.80;;;0.60;;
30036;SDS011;36325;51.512;-0.382;2022-08-19T07:04:40;6.50;;;0.68;;
30036;SDS011;36325;51.512;-0.382;2022-08-19T07:07:09;2.47;;;0.88;;
30036;SDS011;36325;51.512;-0.382;2022-08-19T07:09:45;3.28;;;0.60;;
30036;SDS011;36325;51.512;-0.382;2022-08-19T07:12:18;2.10;;;0.60;;
30036;SDS011;36325;51.512;-0.382;2022-08-19T07:14:48;9.07;;;1.25;;
30036;SDS011;36325;51.512;-0.382;2022-08-19T07:17:16;2.85;;;0.70;;
30036;SDS011;36325;51.512;-0.382;2022-08-19T07:19:45;5.40;;;0.85;;
30036;SDS011;36325;51.512;-0.382;2022-08-19T07:22:12;5.65;;;0.80;;
30036;SDS011;36325;51.512;-0.382;2022-08-19T07:24:41;5.50;;;1.20;;
30036;SDS011;36325;51.512;-0.382;2022-08-19T07:30:11;5.03;;;0.82;;
30036;SDS011;36325;51.512;-0.382;2022-08-19T07:32:40;2.65;;;0.63;;
30036;SDS011;36325;51.512;-0.382;2022-08-19T07:35:07;5.55;;;0.70;;
30036;SDS011;36325;51.512;-0.382;2022-08-19T07:37:36;4.05;;;0.80;;
30036;SDS011;36325;51.512;-0.382;2022-08-19T07:40:05;1.25;;;0.63;;
30036;SDS011;36325;51.512;-0.382;2022-08-19T07:42:33;4.25;;;1.10;;
30036;SDS011;36325;51.512;-0.382;2022-08-19T07:45:01;4.65;;;0.93;;
30036;SDS011;36325;51.512;-0.382;2022-08-19T07:47:29;5.20;;;0.90;;
30036;SDS011;36325;51.512;-0.382;2022-08-19T07:50:16;5.00;;;1.13;;
30036;SDS011;36325;51.512;-0.382;2022-08-19T07:52:45;3.45;;;0.70;;
30036;SDS011;36325;51.512;-0.382;2022-08-19T07:55:14;8.88;;;1.30;;
30036;SDS011;36325;51.512;-0.382;2022-08-19T07:58:02;5.53;;;0.80;;
30036;SDS011;36325;51.512;-0.382;2022-08-19T08:00:31;6.60;;;0.90;;
30036;SDS011;36325;51.512;-0.382;2022-08-19T08:02:59;9.45;;;1.77;;
30036;SDS011;36325;51.512;-0.382;2022-08-19T08:05:26;7.47;;;1.08;;
30036;SDS011;36325;51.512;-0.382;2022-08-19T08:08:12;3.33;;;1.13;;
30036;SDS011;36325;51.512;-0.382;2022-08-19T08:10:58;6.15;;;1.00;;
30036;SDS011;36325;51.512;-0.382;2022-08-19T08:13:26;8.45;;;1.65;;
30036;SDS011;36325;51.512;-0.382;2022-08-19T08:15:54;6.95;;;1.40;;
30036;SDS011;36325;51.512;-0.382;2022-08-19T08:18:23;7.47;;;1.10;;
30036;SDS011;36325;51.512;-0.382;2022-08-19T08:20:53;3.20;;;1.02;;
30036;SDS011;36325;51.512;-0.382;2022-08-19T08:23:20;6.07;;;1.27;;
30036;SDS011;36325;51.512;-0.382;2022-08-19T08:25:57;12.13;;;1.30;;
30036;SDS011;36325;51.512;-0.382;2022-08-19T08:28:25;6.85;;;1.10;;
30036;SDS011;36325;51.512;-0.382;2022-08-19T08:30:55;6.82;;;1.15;;
30036;SDS011;36325;51.512;-0.382;2022-08-19T08:33:24;5.22;;;1.17;;
30036;SDS011;36325;51.512;-0.382;2022-08-19T08:35:56;4.47;;;1.10;;
30036;SDS011;36325;51.512;-0.382;2022-08-19T08:38:23;9.68;;;1.60;;
30036;SDS011;36325;51.512;-0.382;2022-08-19T08:40:52;4.35;;;1.75;;
30036;SDS011;36325;51.512;-0.382;2022-08-19T08:43:27;10.98;;;1.45;;
30036;SDS011;36325;51.512;-0.382;2022-08-19T08:46:05;13.63;;;1.90;;
30036;SDS011;36325;51.512;-0.382;2022-08-19T08:51:48;10.15;;;1.60;;
30036;SDS011;36325;51.512;-0.382;2022-08-19T08:54:32;8.98;;;1.63;;
30036;SDS011;36325;51.512;-0.382;2022-08-19T08:57:07;9.57;;;1.42;;
30036;SDS011;36325;51.512;-0.382;2022-08-19T08:59:41;7.88;;;1.60;;
30036;SDS011;36325;51.512;-0.382;2022-08-19T09:02:10;6.10;;;1.55;;
30036;SDS011;36325;51.512;-0.382;2022-08-19T09:04:37;9.52;;;2.10;;
30036;SDS011;36325;51.512;-0.382;2022-08-19T09:07:15;6.80;;;1.45;;
30036;SDS011;36325;51.512;-0.382;2022-08-19T09:10:03;7.60;;;1.30;;
30036;SDS011;36325;51.512;-0.382;2022-08-19T09:13:40;3.92;;;1.30;;
30036;SDS011;36325;51.512;-0.382;2022-08-19T09:16:06;5.70;;;1.15;;
30036;SDS011;36325;51.512;-0.382;2022-08-19T09:21:22;4.70;;;1.45;;
30036;SDS011;36325;51.512;-0.382;2022-08-19T09:23:56;6.72;;;1.20;;
30036;SDS011;36325;51.512;-0.382;2022-08-19T09:26:25;8.43;;;1.90;;
30036;SDS011;36325;51.512;-0.382;2022-08-19T09:29:12;10.18;;;1.75;;
30036;SDS011;36325;51.512;-0.382;2022-08-19T09:31:40;8.43;;;1.30;;
30036;SDS011;36325;51.512;-0.382;2022-08-19T09:34:09;6.13;;;1.52;;
30036;SDS011;36325;51.512;-0.382;2022-08-19T09:36:47;6.13;;;1.35;;
30036;SDS011;36325;51.512;-0.382;2022-08-19T09:39:15;8.63;;;1.55;;
30036;SDS011;36325;51.512;-0.382;2022-08-19T09:41:43;6.90;;;1.80;;
30036;SDS011;36325;51.512;-0.382;2022-08-19T09:44:12;6.68;;;1.67;;
30036;SDS011;36325;51.512;-0.382;2022-08-19T09:46:40;6.03;;;1.63;;
30036;SDS011;36325;51.512;-0.382;2022-08-19T09:49:07;9.75;;;1.83;;
30036;SDS011;36325;51.512;-0.382;2022-08-19T09:51:34;16.30;;;2.58;;
30036;SDS011;36325;51.512;-0.382;2022-08-19T09:54:02;13.52;;;2.35;;
30036;SDS011;36325;51.512;-0.382;2022-08-19T09:56:30;7.03;;;2.13;;
30036;SDS011;36325;51.512;-0.382;2022-08-19T09:58:59;6.78;;;1.48;;
30036;SDS011;36325;51.512;-0.382;2022-08-19T10:01:28;6.97;;;2.30;;
30036;SDS011;36325;51.512;-0.382;2022-08-19T10:03:58;10.43;;;2.33;;
30036;SDS011;36325;51.512;-0.382;2022-08-19T10:06:27;4.65;;;1.77;;
30036;SDS011;36325;51.512;-0.382;2022-08-19T10:09:09;7.85;;;2.33;;
30036;SDS011;36325;51.512;-0.382;2022-08-19T10:11:39;5.60;;;2.08;;
30036;SDS011;36325;51.512;-0.382;2022-08-19T10:14:17;10.23;;;2.33;;
30036;SDS011;36325;51.512;-0.382;2022-08-19T10:16:48;9.40;;;1.95;;
30036;SDS011;36325;51.512;-0.382;2022-08-19T10:19:17;9.88;;;2.60;;
30036;SDS011;36325;51.512;-0.382;2022-08-19T10:21:51;7.63;;;2.20;;
30036;SDS011;36325;51.512;-0.382;2022-08-19T10:24:18;5.75;;;1.90;;
30036;SDS011;36325;51.512;-0.382;2022-08-19T10:26:47;7.18;;;1.63;;
30036;SDS011;36325;51.512;-0.382;2022-08-19T10:29:21;6.13;;;1.65;;
30036;SDS011;36325;51.512;-0.382;2022-08-19T10:31:59;9.23;;;2.63;;
30036;SDS011;36325;51.512;-0.382;2022-08-19T10:34:29;6.78;;;1.60;;
30036;SDS011;36325;51.512;-0.382;2022-08-19T10:36:57;4.60;;;1.85;;
30036;SDS011;36325;51.512;-0.382;2022-08-19T10:39:31;4.28;;;1.48;;
30036;SDS011;36325;51.512;-0.382;2022-08-19T10:42:06;8.80;;;1.90;;
30036;SDS011;36325;51.512;-0.382;2022-08-19T10:44:34;4.95;;;1.90;;
30036;SDS011;36325;51.512;-0.382;2022-08-19T10:47:02;7.97;;;1.45;;
30036;SDS011;36325;51.512;-0.382;2022-08-19T10:49:43;5.67;;;1.70;;
30036;SDS011;36325;51.512;-0.382;2022-08-19T10:52:29;6.93;;;1.88;;
30036;SDS011;36325;51.512;-0.382;2022-08-19T10:55:04;6.70;;;2.03;;
30036;SDS011;36325;51.512;-0.382;2022-08-19T10:57:51;7.70;;;1.80;;
30036;SDS011;36325;51.512;-0.382;2022-08-19T11:00:27;5.03;;;1.95;;
30036;SDS011;36325;51.512;-0.382;2022-08-19T11:02:58;6.57;;;1.67;;
30036;SDS011;36325;51.512;-0.382;2022-08-19T11:05:26;7.05;;;1.83;;
30036;SDS011;36325;51.512;-0.382;2022-08-19T11:07:53;8.77;;;2.10;;
30036;SDS011;36325;51.512;-0.382;2022-08-19T11:10:20;9.52;;;2.08;;
30036;SDS011;36325;51.512;-0.382;2022-08-19T11:12:48;9.15;;;1.98;;
30036;SDS011;36325;51.512;-0.382;2022-08-19T11:15:17;9.02;;;1.98;;
30036;SDS011;36325;51.512;-0.382;2022-08-19T11:17:44;9.80;;;1.88;;
30036;SDS011;36325;51.512;-0.382;2022-08-19T11:20:12;6.55;;;2.05;;
30036;SDS011;36325;51.512;-0.382;2022-08-19T11:22:41;11.10;;;2.42;;
30036;SDS011;36325;51.512;-0.382;2022-08-19T11:25:09;14.15;;;1.88;;
30036;SDS011;36325;51.512;-0.382;2022-08-19T11:27:38;6.25;;;1.55;;
30036;SDS011;36325;51.512;-0.382;2022-08-19T11:30:09;4.57;;;1.67;;
30036;SDS011;36325;51.512;-0.382;2022-08-19T11:32:39;7.90;;;2.00;;
30036;SDS011;36325;51.512;-0.382;2022-08-19T11:35:12;7.85;;;2.00;;
30036;SDS011;36325;51.512;-0.382;2022-08-19T11:37:40;8.38;;;2.65;;
30036;SDS011;36325;51.512;-0.382;2022-08-19T11:40:07;10.57;;;2.17;;
30036;SDS011;36325;51.512;-0.382;2022-08-19T11:42:35;10.57;;;1.98;;
30036;SDS011;36325;51.512;-0.382;2022-08-19T11:45:21;9.77;;;2.67;;
30036;SDS011;36325;51.512;-0.382;2022-08-19T11:47:52;9.55;;;2.33;;
30036;SDS011;36325;51.512;-0.382;2022-08-19T11:50:20;11.60;;;2.53;;
30036;SDS011;36325;51.512;-0.382;2022-08-19T11:52:50;7.60;;;2.67;;
30036;SDS011;36325;51.512;-0.382;2022-08-19T11:55:20;6.72;;;2.03;;
30036;SDS011;36325;51.512;-0.382;2022-08-19T11:57:48;11.88;;;2.35;;
30036;SDS011;36325;51.512;-0.382;2022-08-19T12:00:16;8.95;;;2.15;;
30036;SDS011;36325;51.512;-0.382;2022-08-19T12:02:43;6.18;;;1.73;;
30036;SDS011;36325;51.512;-0.382;2022-08-19T12:05:10;6.85;;;1.90;;
30036;SDS011;36325;51.512;-0.382;2022-08-19T12:07:39;10.13;;;2.33;;
30036;SDS011;36325;51.512;-0.382;2022-08-19T12:10:08;10.13;;;2.15;;
30036;SDS011;36325;51.512;-0.382;2022-08-19T12:12:36;7.55;;;1.90;;
30036;SDS011;36325;51.512;-0.382;2022-08-19T12:15:07;12.20;;;2.33;;
30036;SDS011;36325;51.512;-0.382;2022-08-19T12:17:35;11.98;;;2.30;;
30036;SDS011;36325;51.512;-0.382;2022-08-19T12:20:03;10.63;;;1.83;;
30036;SDS011;36325;51.512;-0.382;2022-08-19T12:22:31;12.80;;;2.00;;
30036;SDS011;36325;51.512;-0.382;2022-08-19T12:24:58;6.45;;;1.85;;
30036;SDS011;36325;51.512;-0.382;2022-08-19T12:27:25;11.30;;;2.17;;
30036;SDS011;36325;51.512;-0.382;2022-08-19T12:29:57;9.48;;;2.15;;
30036;SDS011;36325;51.512;-0.382;2022-08-19T12:32:28;8.23;;;2.33;;
30036;SDS011;36325;51.512;-0.382;2022-08-19T12:34:55;10.35;;;1.73;;
30036;SDS011;36325;51.512;-0.382;2022-08-19T12:37:22;12.18;;;2.30;;
30036;SDS011;36325;51.512;-0.382;2022-08-19T12:39:49;9.45;;;2.13;;
30036;SDS011;36325;51.512;-0.382;2022-08-19T12:42:16;8.35;;;2.45;;
30036;SDS011;36325;51.512;-0.382;2022-08-19T12:44:44;9.77;;;2.53;;
30036;SDS011;36325;51.512;-0.382;2022-08-19T12:47:12;11.52;;;2.22;;
30036;SDS011;36325;51.512;-0.382;2022-08-19T12:52:20;7.47;;;2.10;;
30036;SDS011;36325;51.512;-0.382;2022-08-19T12:54:48;7.40;;;1.90;;
30036;SDS011;36325;51.512;-0.382;2022-08-19T12:57:20;5.63;;;2.22;;
30036;SDS011;36325;51.512;-0.382;2022-08-19T12:59:52;10.20;;;2.67;;
30036;SDS011;36325;51.512;-0.382;2022-08-19T13:02:22;8.35;;;1.92;;
30036;SDS011;36325;51.512;-0.382;2022-08-19T13:04:49;7.75;;;1.88;;
30036;SDS011;36325;51.512;-0.382;2022-08-19T13:07:17;7.82;;;1.65;;
30036;SDS011;36325;51.512;-0.382;2022-08-19T13:09:44;11.35;;;1.77;;
30036;SDS011;36325;51.512;-0.382;2022-08-19T13:12:11;11.88;;;2.03;;
30036;SDS011;36325;51.512;-0.382;2022-08-19T13:14:39;10.57;;;2.38;;
30036;SDS011;36325;51.512;-0.382;2022-08-19T13:17:07;8.48;;;1.98;;
30036;SDS011;36325;51.512;-0.382;2022-08-19T13:19:38;7.60;;;1.80;;
30036;SDS011;36325;51.512;-0.382;2022-08-19T13:22:06;7.50;;;2.42;;
30036;SDS011;36325;51.512;-0.382;2022-08-19T13:24:38;7.68;;;1.80;;
30036;SDS011;36325;51.512;-0.382;2022-08-19T13:27:10;12.77;;;1.92;;
30036;SDS011;36325;51.512;-0.382;2022-08-19T13:29:39;9.35;;;1.90;;
30036;SDS011;36325;51.512;-0.382;2022-08-19T13:32:26;9.88;;;2.17;;
30036;SDS011;36325;51.512;-0.382;2022-08-19T13:35:12;5.93;;;1.95;;
30036;SDS011;36325;51.512;-0.382;2022-08-19T13:37:42;8.18;;;2.30;;
30036;SDS011;36325;51.512;-0.382;2022-08-19T13:40:14;9.38;;;2.13;;
30036;SDS011;36325;51.512;-0.382;2022-08-19T13:42:49;8.15;;;2.03;;
30036;SDS011;36325;51.512;-0.382;2022-08-19T13:45:21;5.47;;;1.75;;
30036;SDS011;36325;51.512;-0.382;2022-08-19T13:47:52;7.97;;;2.28;;
30036;SDS011;36325;51.512;-0.382;2022-08-19T13:50:28;9.10;;;2.00;;
30036;SDS011;36325;51.512;-0.382;2022-08-19T13:52:57;4.55;;;1.70;;
30036;SDS011;36325;51.512;-0.382;2022-08-19T13:55:26;7.10;;;1.75;;
30036;SDS011;36325;51.512;-0.382;2022-08-19T13:57:54;9.23;;;2.03;;
30036;SDS011;36325;51.512;-0.382;2022-08-19T14:00:25;5.35;;;2.00;;
30036;SDS011;36325;51.512;-0.382;2022-08-19T14:02:54;10.82;;;1.83;;
30036;SDS011;36325;51.512;-0.382;2022-08-19T14:05:23;13.45;;;2.55;;
30036;SDS011;36325;51.512;-0.382;2022-08-19T14:07:52;6.55;;;1.58;;
30036;SDS011;36325;51.512;-0.382;2022-08-19T14:10:20;7.97;;;2.10;;
30036;SDS011;36325;51.512;-0.382;2022-08-19T14:12:52;7.00;;;2.15;;
30036;SDS011;36325;51.512;-0.382;2022-08-19T14:15:25;6.63;;;1.30;;
30036;SDS011;36325;51.512;-0.382;2022-08-19T14:17:53;5.45;;;2.05;;
30036;SDS011;36325;51.512;-0.382;2022-08-19T14:20:21;8.68;;;2.05;;
30036;SDS011;36325;51.512;-0.382;2022-08-19T14:22:51;9.52;;;1.75;;
30036;SDS011;36325;51.512;-0.382;2022-08-19T14:25:20;5.28;;;2.15;;
30036;SDS011;36325;51.512;-0.382;2022-08-19T14:27:50;9.00;;;2.53;;
30036;SDS011;36325;51.512;-0.382;2022-08-19T14:30:19;10.55;;;1.85;;
30036;SDS011;36325;51.512;-0.382;2022-08-19T14:32:54;7.30;;;1.63;;
30036;SDS011;36325;51.512;-0.382;2022-08-19T14:35:23;7.40;;;1.90;;
30036;SDS011;36325;51.512;-0.382;2022-08-19T14:37:51;12.05;;;2.28;;
30036;SDS011;36325;51.512;-0.382;2022-08-19T14:40:23;5.50;;;1.45;;
30036;SDS011;36325;51.512;-0.382;2022-08-19T14:42:53;7.57;;;2.20;;
30036;SDS011;36325;51.512;-0.382;2022-08-19T14:45:26;7.65;;;1.67;;
30036;SDS011;36325;51.512;-0.382;2022-08-19T14:47:54;8.50;;;1.77;;
30036;SDS011;36325;51.512;-0.382;2022-08-19T14:50:22;10.52;;;1.80;;
30036;SDS011;36325;51.512;-0.382;2022-08-19T14:52:49;4.85;;;1.58;;
30036;SDS011;36325;51.512;-0.382;2022-08-19T14:55:23;8.38;;;2.33;;
30036;SDS011;36325;51.512;-0.382;2022-08-19T14:57:51;9.38;;;1.80;;
30036;SDS011;36325;51.512;-0.382;2022-08-19T15:00:18;8.25;;;1.85;;
30036;SDS011;36325;51.512;-0.382;2022-08-19T15:02:46;9.25;;;1.80;;